Avondale, Missouri
Current Conditions -  °F | °C
As of 3:54 AM on Friday 31 Oct 2014 (Local Time) from KMKC Reporting Station
Overcast Overcast  
Wind Chill: 44°   Ceiling: 2700
Heat Index: 49°   Visibility: 10mi
Dew Point: 37°   Wind: 12mph
Humidity: 64%   Direction: 350°N
Pressure: 30.3"   Gusts: 28mph
Location:  39.1657°N, 94.5231°W
Report Text: KMKC 310854Z 35010G24KT 10SM OVC027 09/03 A3030 RMK AO2 PK WND 36029/0836 RAB29E46 SLP257 P0000 60000 T00940028 53016
Loading
Personal Weather Stations






























Interactive Weather Map
Tropical Storm Tracking
New forecast layout! Learn more

10-Day Weather Forecast

Advertisements
Track Severe Weather on mobile